Time;durP1;ratioP1;P1;durP2;ratioP2;P2;SDS_P1;SDS_P2;PMS_P1;PMS_P2;Temp;Humidity;BMP_temperature;BMP_pressure;BME280_temperature;BME280_humidity;BME280_pressure;Samples;Min_cycle;Max_cycle;Signal;HPM_P1;HPM_P2
2023/01/17 00:02:10;;;;;;;10.13;5.95;;;7.80;99.90;;;;;;5053414;28;20051;-65
2023/01/17 00:10:06;;;;;;;;;;;8.10;99.90;;;;;;5053695;28;20373;-69
2023/01/17 00:12:33;;;;;;;13.57;9.13;;;8.30;99.90;;;;;;5053233;28;19999;-69
2023/01/17 00:14:59;;;;;;;18.23;11.93;;;8.50;99.90;;;;;;5052903;28;20017;-63
2023/01/17 00:17:27;;;;;;;11.05;8.10;;;8.40;99.90;;;;;;5053574;28;20383;-67
2023/01/17 01:35:03;;;;;;;73.05;45.17;;;8.50;99.90;;;;;;5054946;28;20580;-71
2023/01/17 01:37:30;;;;;;;79.97;50.40;;;8.30;99.90;;;;;;5055974;28;20108;-66
2023/01/17 01:39:56;;;;;;;93.05;53.92;;;8.20;99.90;;;;;;5055882;28;20029;-69
2023/01/17 01:42:22;;;;;;;72.07;46.08;;;8.10;99.90;;;;;;5055539;28;20023;-65
2023/01/17 01:44:50;;;;;;;65.38;43.42;;;7.90;99.90;;;;;;5055660;28;20368;-66
2023/01/17 01:47:29;;;;;;;60.92;38.92;;;7.90;99.90;;;;;;5055621;28;20055;-67
2023/01/17 01:49:57;;;;;;;49.75;33.95;;;7.90;99.90;;;;;;5055487;28;20049;-60
2023/01/17 01:52:27;;;;;;;49.15;32.72;;;8.00;99.90;;;;;;5055563;28;20128;-69
2023/01/17 01:54:59;;;;;;;46.47;31.88;;;8.00;99.90;;;;;;5055433;28;20047;-72
2023/01/17 01:57:30;;;;;;;43.33;30.92;;;8.00;99.90;;;;;;5055683;28;20017;-63
2023/01/17 02:00:06;;;;;;;37.90;26.95;;;8.00;99.90;;;;;;5055532;28;20112;-65
2023/01/17 02:02:32;;;;;;;60.70;37.03;;;8.10;99.90;;;;;;5055141;28;20040;-65
2023/01/17 02:04:59;;;;;;;73.45;43.33;;;8.10;99.90;;;;;;5055315;28;20021;-66
2023/01/17 02:07:32;;;;;;;49.50;33.88;;;7.90;99.90;;;;;;5055312;28;20025;-63
2023/01/17 02:09:59;;;;;;;43.90;30.15;;;7.80;99.90;;;;;;5055368;28;20126;-60
2023/01/17 02:12:25;;;;;;;42.78;28.88;;;7.90;99.90;;;;;;5055264;28;20162;-66
2023/01/17 02:14:50;;;;;;;52.15;34.00;;;8.00;99.90;;;;;;5055206;28;20092;-65
2023/01/17 02:18:01;;;;;;;64.30;41.83;;;8.10;99.90;;;;;;5055066;28;20482;-67
2023/01/17 02:20:46;;;;;;;75.97;47.47;;;8.00;99.90;;;;;;5049332;28;20407;-65
2023/01/17 02:23:55;;;;;;;69.22;42.83;;;7.80;99.90;;;;;;5054953;28;20036;-65
2023/01/17 02:26:45;;;;;;;51.47;34.33;;;7.40;99.90;;;;;;5055140;28;20025;-64
2023/01/17 02:29:32;;;;;;;48.03;33.03;;;7.60;99.90;;;;;;5054999;28;20017;-67
2023/01/17 02:32:08;;;;;;;47.15;32.10;;;7.80;99.90;;;;;;5054745;28;20096;-69
2023/01/17 02:34:59;;;;;;;48.40;31.20;;;7.80;99.90;;;;;;5054769;28;20029;-64
2023/01/17 02:38:00;;;;;;;53.15;32.35;;;7.70;99.90;;;;;;5044736;28;20044;-65
2023/01/17 02:40:31;;;;;;;44.55;29.38;;;7.50;99.90;;;;;;5054555;28;20033;-68
2023/01/17 02:43:04;;;;;;;40.83;26.55;;;7.50;99.90;;;;;;5054758;28;20090;-69
2023/01/17 02:45:30;;;;;;;30.10;21.70;;;7.50;99.90;;;;;;5054585;28;20380;-64
2023/01/17 02:47:56;;;;;;;31.52;22.15;;;7.60;99.90;;;;;;5054346;28;20047;-69
2023/01/17 02:50:27;;;;;;;33.58;23.67;;;7.70;99.90;;;;;;5054627;28;20027;-64
2023/01/17 02:53:32;;;;;;;58.75;42.15;;;7.80;99.90;;;;;;5054230;28;20013;-72
2023/01/17 02:56:27;;;;;;;35.83;25.98;;;7.80;99.90;;;;;;5054487;28;20028;-64
2023/01/17 02:59:06;;;;;;;32.45;23.85;;;7.80;99.90;;;;;;5054615;28;20032;-68
2023/01/17 03:01:37;;;;;;;43.55;28.83;;;7.90;99.90;;;;;;5054179;28;20124;-68
2023/01/17 03:04:31;;;;;;;34.78;24.48;;;7.90;99.90;;;;;;5054296;28;20017;-63
2023/01/17 03:07:01;;;;;;;31.42;23.83;;;7.90;99.90;;;;;;5054192;28;20128;-65
2023/01/17 03:09:29;;;;;;;34.45;23.52;;;8.00;99.90;;;;;;5054071;28;20029;-68
2023/01/17 03:11:56;;;;;;;30.15;22.30;;;8.10;99.90;;;;;;5053952;28;20083;-63
2023/01/17 03:14:22;;;;;;;30.80;22.67;;;8.10;99.90;;;;;;5053981;28;20024;-69
2023/01/17 03:16:48;;;;;;;43.17;28.95;;;8.20;99.90;;;;;;5054004;28;20550;-65
2023/01/17 03:19:14;;;;;;;36.28;25.80;;;8.20;99.90;;;;;;5053897;28;20017;-60
2023/01/17 03:21:41;;;;;;;38.78;25.90;;;8.20;99.90;;;;;;5053859;28;20037;-63
2023/01/17 03:24:06;;;;;;;30.48;22.35;;;8.20;99.90;;;;;;5054217;28;20414;-69
2023/01/17 03:26:32;;;;;;;41.35;27.65;;;8.20;99.90;;;;;;5053649;28;20059;-68
2023/01/17 03:28:58;;;;;;;41.50;28.80;;;8.30;99.90;;;;;;5053943;28;20021;-71
2023/01/17 03:31:24;;;;;;;35.42;24.98;;;8.10;99.90;;;;;;5053800;28;20033;-69
2023/01/17 03:33:50;;;;;;;29.50;20.40;;;8.10;99.90;;;;;;5054012;28;20017;-67
2023/01/17 03:36:15;;;;;;;37.75;26.00;;;8.10;99.90;;;;;;5053619;28;20021;-69
2023/01/17 03:38:41;;;;;;;28.80;19.75;;;8.20;99.90;;;;;;5053893;28;20514;-65
2023/01/17 03:41:07;;;;;;;30.20;20.88;;;8.20;99.90;;;;;;5053657;28;20083;-68
2023/01/17 03:43:33;;;;;;;24.10;17.75;;;8.20;99.90;;;;;;5053878;28;20025;-71
2023/01/17 03:46:07;;;;;;;25.48;17.75;;;8.20;99.90;;;;;;5053674;28;20052;-70
2023/01/17 03:48:32;;;;;;;20.55;16.15;;;8.10;99.90;;;;;;5053462;28;20076;-66
2023/01/17 03:50:58;;;;;;;19.77;14.30;;;8.10;99.90;;;;;;5053223;28;20098;-67
2023/01/17 03:53:24;;;;;;;21.50;15.32;;;8.10;99.90;;;;;;5053447;28;20067;-70
2023/01/17 03:55:50;;;;;;;16.60;12.05;;;8.20;99.90;;;;;;5053496;28;20029;-69
2023/01/17 03:58:16;;;;;;;13.15;10.30;;;8.20;99.90;;;;;;5053024;28;20111;-65
2023/01/17 04:00:42;;;;;;;11.68;8.98;;;8.30;99.90;;;;;;5053323;28;20029;-66
2023/01/17 04:03:07;;;;;;;10.70;8.90;;;8.30;99.90;;;;;;5053299;28;20029;-65
2023/01/17 04:05:33;;;;;;;18.55;12.15;;;8.40;99.90;;;;;;5053042;28;20025;-69
2023/01/17 04:07:59;;;;;;;10.93;9.27;;;8.40;99.90;;;;;;5053406;28;20107;-72
2023/01/17 04:10:25;;;;;;;12.38;9.52;;;8.40;99.90;;;;;;5053286;28;20035;-64
2023/01/17 04:12:50;;;;;;;22.23;15.32;;;8.50;99.90;;;;;;5052027;28;20044;-63
2023/01/17 04:15:16;;;;;;;25.00;18.30;;;8.50;99.90;;;;;;5053361;28;20074;-66
2023/01/17 04:17:42;;;;;;;22.30;14.35;;;8.40;99.90;;;;;;5053247;28;20025;-64
2023/01/17 04:20:30;;;;;;;23.80;16.08;;;8.30;99.90;;;;;;5053152;28;20033;-69
2023/01/17 04:22:56;;;;;;;19.52;13.18;;;8.30;99.90;;;;;;5053138;28;20082;-66
2023/01/17 04:25:22;;;;;;;15.48;11.30;;;8.30;99.90;;;;;;5053482;28;20108;-64
2023/01/17 04:27:48;;;;;;;20.52;13.20;;;8.30;99.90;;;;;;5053000;28;20025;-65
2023/01/17 04:30:13;;;;;;;16.15;11.88;;;8.30;99.90;;;;;;5053049;28;20036;-61
2023/01/17 04:32:39;;;;;;;14.85;10.60;;;8.40;99.90;;;;;;5053122;28;20025;-67
2023/01/17 04:35:05;;;;;;;13.00;9.70;;;8.40;99.90;;;;;;5052875;28;20042;-65
2023/01/17 04:37:31;;;;;;;12.55;8.90;;;8.50;99.90;;;;;;5053151;28;20021;-66
2023/01/17 04:39:57;;;;;;;11.93;9.23;;;8.50;99.90;;;;;;5052949;28;20033;-67
2023/01/17 04:42:22;;;;;;;14.32;10.98;;;8.50;99.90;;;;;;5052882;28;20021;-69
2023/01/17 04:44:48;;;;;;;14.95;11.30;;;8.40;99.90;;;;;;5051744;28;20029;-67
2023/01/17 04:47:14;;;;;;;15.10;10.98;;;8.40;99.90;;;;;;5052964;28;20029;-65
2023/01/17 04:49:39;;;;;;;14.13;10.20;;;8.50;99.90;;;;;;5052524;28;20077;-70
2023/01/17 04:52:05;;;;;;;13.32;9.77;;;8.50;99.90;;;;;;5052991;28;20638;-67
2023/01/17 04:54:31;;;;;;;13.85;9.57;;;8.50;99.90;;;;;;5052928;28;20049;-61
2023/01/17 04:56:56;;;;;;;15.60;10.40;;;8.40;99.90;;;;;;5052758;28;20418;-65
2023/01/17 04:59:22;;;;;;;16.35;10.13;;;8.50;99.90;;;;;;5052769;28;20025;-65
2023/01/17 05:01:48;;;;;;;13.65;10.07;;;8.60;99.90;;;;;;5053035;28;20521;-60
2023/01/17 05:04:14;;;;;;;15.20;11.23;;;8.60;99.90;;;;;;5052637;28;20475;-68
2023/01/17 05:06:40;;;;;;;16.10;11.88;;;8.60;99.90;;;;;;5052627;28;20483;-64
2023/01/17 05:09:05;;;;;;;11.88;8.75;;;8.60;99.90;;;;;;5053892;28;20021;-67
2023/01/17 05:11:32;;;;;;;18.00;13.38;;;8.60;99.90;;;;;;5056396;28;20017;-64
2023/01/17 05:13:58;;;;;;;20.50;14.07;;;8.60;99.90;;;;;;5056176;28;20013;-66
2023/01/17 05:16:23;;;;;;;24.05;16.10;;;8.60;99.90;;;;;;5056350;28;20029;-70
2023/01/17 05:18:52;;;;;;;16.98;12.95;;;8.60;99.90;;;;;;5056065;28;20088;-66
2023/01/17 05:21:19;;;;;;;17.63;13.13;;;8.60;99.90;;;;;;5056401;28;20035;-61
2023/01/17 05:23:45;;;;;;;22.48;17.00;;;8.60;99.90;;;;;;5056084;28;20111;-63
2023/01/17 05:26:11;;;;;;;25.77;18.25;;;8.50;99.90;;;;;;5055951;28;20107;-71
2023/01/17 05:28:37;;;;;;;27.00;18.75;;;8.60;99.90;;;;;;5054690;28;20021;-65
2023/01/17 05:31:03;;;;;;;37.50;25.38;;;8.60;99.90;;;;;;5056399;28;20017;-65
2023/01/17 05:33:29;;;;;;;26.52;20.30;;;8.60;99.90;;;;;;5055705;28;20028;-69
2023/01/17 05:35:55;;;;;;;26.23;18.88;;;8.50;99.90;;;;;;5055744;28;20021;-65
2023/01/17 05:38:22;;;;;;;30.85;21.95;;;8.50;99.90;;;;;;5056190;28;20112;-61
2023/01/17 05:40:48;;;;;;;33.85;23.88;;;8.60;99.90;;;;;;5055747;28;20036;-70
2023/01/17 05:43:14;;;;;;;37.80;25.55;;;8.50;99.90;;;;;;5055695;28;20017;-64
2023/01/17 05:45:40;;;;;;;26.85;20.65;;;8.60;99.90;;;;;;5055544;28;20022;-64
2023/01/17 05:48:06;;;;;;;33.05;24.40;;;8.50;99.90;;;;;;5055506;28;20051;-66
2023/01/17 05:50:36;;;;;;;50.20;37.55;;;8.60;99.90;;;;;;5055579;28;20029;-62
2023/01/17 05:53:11;;;;;;;80.15;51.90;;;8.60;99.90;;;;;;5054656;28;20024;-65
2023/01/17 05:55:38;;;;;;;74.90;51.22;;;8.70;99.90;;;;;;5066411;28;20127;-68
2023/01/17 05:58:40;;;;;;;64.95;47.40;;;8.70;99.90;;;;;;5074068;28;20052;-65
2023/01/17 06:01:06;;;;;;;58.22;41.70;;;8.60;99.90;;;;;;5073911;28;20028;-69
2023/01/17 06:03:32;;;;;;;47.10;35.47;;;8.60;99.90;;;;;;5075134;28;20021;-65
2023/01/17 06:05:57;;;;;;;40.65;30.00;;;8.50;99.90;;;;;;5075396;28;20020;-66
2023/01/17 06:08:23;;;;;;;33.95;25.77;;;8.50;99.90;;;;;;5074698;28;20200;-63
2023/01/17 06:10:49;;;;;;;60.60;42.30;;;8.50;99.90;;;;;;5074953;28;20052;-66
2023/01/17 06:13:19;;;;;;;64.38;45.90;;;8.50;99.90;;;;;;5075342;28;20032;-67
2023/01/17 06:15:45;;;;;;;29.42;22.40;;;8.50;99.90;;;;;;5074181;28;20463;-63
2023/01/17 06:18:13;;;;;;;52.13;40.17;;;8.60;99.90;;;;;;5074907;28;20028;-62
2023/01/17 06:20:39;;;;;;;30.77;23.42;;;8.50;99.90;;;;;;5074922;28;20483;-66
2023/01/17 06:23:06;;;;;;;25.23;18.58;;;8.50;99.90;;;;;;5075052;28;20028;-63
2023/01/17 06:25:42;;;;;;;18.92;13.23;;;8.70;99.90;;;;;;5074922;28;20055;-69
2023/01/17 06:28:08;;;;;;;14.23;11.68;;;8.80;99.90;;;;;;5074931;28;20040;-68
2023/01/17 06:30:34;;;;;;;12.50;10.00;;;8.90;99.90;;;;;;5074646;28;20025;-63
2023/01/17 06:33:00;;;;;;;9.23;7.07;;;9.00;99.90;;;;;;5074871;28;20375;-62
2023/01/17 06:35:26;;;;;;;11.50;8.93;;;9.10;99.90;;;;;;5074901;28;20025;-65
2023/01/17 06:37:54;;;;;;;6.78;4.85;;;9.00;99.90;;;;;;5072848;28;20020;-68
2023/01/17 06:40:20;;;;;;;8.98;6.88;;;9.10;99.90;;;;;;5074489;28;20477;-65
2023/01/17 06:42:46;;;;;;;7.00;5.72;;;9.00;99.90;;;;;;5074517;28;20021;-68
2023/01/17 06:45:12;;;;;;;7.85;5.90;;;9.10;99.90;;;;;;5074166;28;20031;-65
2023/01/17 06:47:39;;;;;;;7.53;6.22;;;9.20;99.90;;;;;;5073833;28;20028;-70
2023/01/17 06:50:06;;;;;;;8.93;6.68;;;9.30;99.90;;;;;;5072183;28;20482;-63
2023/01/17 06:52:32;;;;;;;16.63;13.00;;;9.30;99.90;;;;;;5072689;28;20021;-63
2023/01/17 08:37:56;;;;;;;30.58;23.70;;;10.00;99.90;;;;;;5070710;28;20371;-62
2023/01/17 08:40:22;;;;;;;23.08;18.17;;;10.30;99.90;;;;;;5070715;28;20470;-64
2023/01/17 08:42:56;;;;;;;28.77;20.90;;;10.80;99.90;;;;;;5069777;28;20363;-69
2023/01/17 08:45:22;;;;;;;27.52;20.58;;;11.10;99.90;;;;;;5070498;28;20100;-61
2023/01/17 08:47:49;;;;;;;26.95;21.15;;;11.20;99.90;;;;;;5070383;28;20021;-63
2023/01/17 08:50:19;;;;;;;28.38;22.48;;;11.20;99.90;;;;;;5070320;28;20027;-68
2023/01/17 08:52:48;;;;;;;23.52;19.13;;;11.20;99.90;;;;;;5070212;28;20021;-61
2023/01/17 08:55:15;;;;;;;25.25;19.13;;;11.20;99.90;;;;;;5069864;28;20405;-64
2023/01/17 08:57:40;;;;;;;27.83;21.55;;;11.30;99.90;;;;;;5069850;28;20045;-65
2023/01/17 09:00:07;;;;;;;35.03;25.52;;;11.50;99.90;;;;;;5070159;28;20077;-63
2023/01/17 09:02:33;;;;;;;35.25;25.15;;;11.70;99.90;;;;;;5069825;28;20119;-69
2023/01/17 09:04:59;;;;;;;16.85;13.57;;;11.90;99.90;;;;;;5069117;28;20478;-62
2023/01/17 09:07:25;;;;;;;11.00;8.38;;;11.70;99.90;;;;;;5069332;28;20077;-69
2023/01/17 09:09:52;;;;;;;26.70;19.77;;;11.70;99.90;;;;;;5069238;28;20020;-65
2023/01/17 09:12:20;;;;;;;18.70;15.15;;;11.80;99.90;;;;;;5067197;28;20017;-67
2023/01/17 09:14:46;;;;;;;16.27;13.27;;;12.20;99.90;;;;;;5069455;28;20179;-61
2023/01/17 09:17:11;;;;;;;13.63;11.52;;;12.50;99.70;;;;;;5069838;28;20523;-64
2023/01/17 09:19:40;;;;;;;9.98;8.88;;;12.60;99.80;;;;;;5069340;28;20502;-68
2023/01/17 09:22:06;;;;;;;8.65;6.57;;;12.70;98.80;;;;;;5067898;28;20498;-65
2023/01/17 09:24:32;;;;;;;8.40;7.50;;;12.80;97.30;;;;;;5067498;28;20098;-67
2023/01/17 09:26:58;;;;;;;7.75;6.70;;;12.90;98.10;;;;;;5067930;28;20035;-62
2023/01/17 09:29:24;;;;;;;9.27;7.65;;;13.00;98.20;;;;;;5066523;28;20017;-68
2023/01/17 09:31:50;;;;;;;9.82;7.70;;;13.10;98.80;;;;;;5068030;28;20025;-67
2023/01/17 09:34:17;;;;;;;10.45;8.75;;;13.30;98.00;;;;;;5068025;28;20227;-62
2023/01/17 09:36:43;;;;;;;11.85;9.65;;;13.50;97.70;;;;;;5066809;28;20089;-63
2023/01/17 09:39:10;;;;;;;10.55;8.07;;;13.60;97.50;;;;;;5067056;28;20017;-63
2023/01/17 09:42:02;;;;;;;10.45;8.75;;;13.50;95.20;;;;;;5067627;28;20052;-69
2023/01/17 09:44:51;;;;;;;10.13;7.93;;;13.40;97.50;;;;;;5066195;28;20033;-58
2023/01/17 09:47:26;;;;;;;8.88;7.93;;;13.50;97.00;;;;;;5064500;28;20029;-70
2023/01/17 09:49:55;;;;;;;10.45;8.93;;;13.50;96.70;;;;;;5054647;28;20166;-69
2023/01/17 09:52:23;;;;;;;8.85;7.85;;;13.30;96.00;;;;;;5054668;28;20416;-64
2023/01/17 09:54:50;;;;;;;9.40;7.78;;;13.20;96.20;;;;;;5054625;28;20119;-68
2023/01/17 09:57:37;;;;;;;11.13;8.55;;;13.30;98.60;;;;;;5055034;28;20044;-67
2023/01/17 10:00:33;;;;;;;9.18;7.35;;;13.60;97.30;;;;;;5042721;28;20037;-66
2023/01/17 10:03:30;;;;;;;8.00;7.20;;;13.60;97.20;;;;;;5040617;28;20024;-72
2023/01/17 10:06:10;;;;;;;9.43;7.45;;;13.70;96.70;;;;;;5042145;28;20061;-65
2023/01/17 10:08:59;;;;;;;7.95;6.85;;;13.60;96.30;;;;;;5040335;28;20079;-67
2023/01/17 10:11:33;;;;;;;7.82;6.47;;;13.50;96.80;;;;;;5043924;28;20045;-72
2023/01/17 10:14:31;;;;;;;9.00;7.50;;;13.40;96.60;;;;;;5035003;28;20036;-73
2023/01/17 10:17:17;;;;;;;9.32;7.22;;;13.30;97.20;;;;;;5036957;28;20048;-71
2023/01/17 10:20:02;;;;;;;8.48;7.20;;;13.30;96.60;;;;;;5039446;28;20033;-62
2023/01/17 10:22:37;;;;;;;8.00;6.68;;;13.10;97.40;;;;;;5044942;28;20057;-66
2023/01/17 10:25:24;;;;;;;7.53;5.60;;;13.20;98.10;;;;;;5054453;28;20024;-66
2023/01/17 10:28:03;;;;;;;6.75;5.30;;;13.40;99.60;;;;;;5035148;28;20021;-68
2023/01/17 10:30:34;;;;;;;7.53;5.90;;;13.40;97.70;;;;;;5034748;28;20075;-65
2023/01/17 10:33:11;;;;;;;6.72;5.40;;;13.30;98.80;;;;;;5033308;28;20047;-60
2023/01/17 10:36:02;;;;;;;8.23;6.20;;;13.30;96.80;;;;;;5033084;28;20071;-65
2023/01/17 10:38:34;;;;;;;8.15;6.40;;;13.40;96.70;;;;;;5033653;28;20028;-67
2023/01/17 10:41:23;;;;;;;8.00;5.90;;;13.60;97.40;;;;;;5033828;28;20025;-68
2023/01/17 10:44:06;;;;;;;7.85;6.25;;;13.80;96.90;;;;;;5032428;28;20026;-60
2023/01/17 10:46:40;;;;;;;8.00;5.70;;;13.90;96.00;;;;;;5033732;28;20040;-60
2023/01/17 10:49:16;;;;;;;7.25;5.50;;;13.90;95.30;;;;;;5034620;28;20025;-68
2023/01/17 10:51:58;;;;;;;6.78;5.50;;;13.70;95.60;;;;;;5030162;28;20032;-68
2023/01/17 10:54:27;;;;;;;5.30;4.80;;;13.70;96.20;;;;;;5033029;28;20030;-60
2023/01/17 10:56:53;;;;;;;4.85;4.35;;;13.70;96.90;;;;;;5034651;28;20075;-69
2023/01/17 10:59:37;;;;;;;5.63;4.18;;;13.70;97.30;;;;;;5032654;28;20418;-71
2023/01/17 11:02:13;;;;;;;4.25;3.60;;;13.80;96.50;;;;;;5032957;28;20049;-67
2023/01/17 11:04:41;;;;;;;5.32;3.42;;;13.80;97.10;;;;;;5034294;28;20472;-68
2023/01/17 11:07:18;;;;;;;4.38;3.67;;;13.80;97.10;;;;;;5032819;28;20479;-63
2023/01/17 11:09:46;;;;;;;5.18;4.30;;;13.90;97.10;;;;;;5034068;28;20036;-66
2023/01/17 11:12:45;;;;;;;4.50;3.60;;;13.90;95.90;;;;;;5049946;28;20035;-68
2023/01/17 11:15:10;;;;;;;4.13;3.60;;;13.80;96.40;;;;;;5051760;28;20025;-65
2023/01/17 11:17:44;;;;;;;4.80;3.70;;;13.80;96.30;;;;;;5053426;28;20489;-67
2023/01/17 11:20:33;;;;;;;5.40;4.20;;;13.80;96.50;;;;;;5053975;28;20021;-63
2023/01/17 11:23:17;;;;;;;5.20;3.35;;;14.10;96.40;;;;;;5053065;28;20372;-71
2023/01/17 11:26:01;;;;;;;3.88;3.47;;;14.60;95.60;;;;;;5052488;28;20025;-65
2023/01/17 11:28:32;;;;;;;3.92;3.50;;;15.00;94.30;;;;;;5053726;28;20429;-68
2023/01/17 11:31:06;;;;;;;3.67;3.17;;;15.50;92.30;;;;;;5053700;28;20090;-62
2023/01/17 11:33:55;;;;;;;3.05;2.75;;;15.70;92.60;;;;;;5053782;28;20447;-65
2023/01/17 11:36:20;;;;;;;5.82;2.65;;;16.00;92.40;;;;;;5053384;28;20127;-68
2023/01/17 11:39:05;;;;;;;3.72;3.20;;;16.40;90.50;;;;;;5053568;28;20064;-65
2023/01/17 11:41:35;;;;;;;3.38;2.85;;;16.70;85.80;;;;;;5053691;28;20029;-69
2023/01/17 11:44:01;;;;;;;3.05;2.58;;;16.80;88.00;;;;;;5052324;28;20502;-64
2023/01/17 11:46:28;;;;;;;4.15;3.30;;;17.00;85.60;;;;;;5052526;28;20067;-67
2023/01/17 11:48:56;;;;;;;3.47;2.92;;;17.00;82.10;;;;;;5053118;28;20536;-65
2023/01/17 11:51:30;;;;;;;3.15;2.63;;;17.10;83.00;;;;;;5053390;28;20099;-69
2023/01/17 11:54:28;;;;;;;2.67;2.10;;;17.30;85.40;;;;;;5051908;28;20025;-68
2023/01/17 11:57:01;;;;;;;2.45;2.25;;;17.60;82.80;;;;;;5052915;28;20478;-64
2023/01/17 11:59:41;;;;;;;6.20;1.83;;;17.70;80.00;;;;;;5053503;28;20021;-69
2023/01/17 12:02:09;;;;;;;1.80;1.70;;;17.70;81.30;;;;;;5053755;28;20387;-64
2023/01/17 12:04:41;;;;;;;1.70;1.60;;;17.80;78.70;;;;;;5053111;28;20044;-64
2023/01/17 12:07:21;;;;;;;3.83;3.20;;;18.10;80.10;;;;;;5053269;28;20078;-65
2023/01/17 12:10:07;;;;;;;3.20;2.55;;;18.50;76.10;;;;;;5053263;28;20025;-63
2023/01/17 12:15:26;;;;;;;2.20;1.83;;;18.10;76.90;;;;;;5053314;28;20025;-67
2023/01/17 12:17:52;;;;;;;3.78;2.20;;;18.10;76.20;;;;;;5053080;28;20021;-69
2023/01/17 12:20:31;;;;;;;3.45;2.70;;;18.10;76.60;;;;;;5051788;28;20497;-66
2023/01/17 12:23:31;;;;;;;6.20;5.18;;;18.10;75.00;;;;;;5051642;28;20532;-65
2023/01/17 12:26:10;;;;;;;7.00;5.40;;;17.80;74.90;;;;;;5052040;28;20064;-65
2023/01/17 12:29:02;;;;;;;5.53;4.60;;;17.60;76.10;;;;;;5050651;28;20021;-62
2023/01/17 12:31:37;;;;;;;5.97;5.13;;;17.80;76.10;;;;;;5052453;28;20060;-66
2023/01/17 12:34:53;;;;;;;6.07;5.00;;;17.60;76.00;;;;;;5051701;28;20025;-64
2023/01/17 12:37:25;;;;;;;6.32;5.72;;;17.50;76.80;;;;;;5048887;28;20083;-61
2023/01/17 12:40:01;;;;;;;7.30;6.38;;;17.30;78.30;;;;;;5052752;28;20111;-61
2023/01/17 12:42:45;;;;;;;6.65;5.55;;;17.30;77.70;;;;;;5051881;28;20032;-69
2023/01/17 12:45:19;;;;;;;6.03;5.28;;;17.20;77.50;;;;;;5051107;28;20107;-68
2023/01/17 12:47:47;;;;;;;;;;;17.10;77.80;;;;;;5051589;28;20033;-67
2023/01/17 12:50:30;;;;;;;8.27;5.60;;;16.90;79.00;;;;;;5049971;28;19905;-68
2023/01/17 12:53:21;;;;;;;5.90;5.30;;;16.90;80.20;;;;;;5052214;28;20421;-65
2023/01/17 12:55:53;;;;;;;5.07;4.28;;;17.20;80.20;;;;;;5052840;28;20424;-68
2023/01/17 12:58:39;;;;;;;4.32;3.53;;;17.10;78.40;;;;;;5052399;28;20036;-64
2023/01/17 13:01:14;;;;;;;5.30;3.75;;;17.30;79.20;;;;;;5052930;28;20044;-65
2023/01/17 13:03:53;;;;;;;4.32;3.72;;;17.30;79.30;;;;;;5052831;28;20032;-63
2023/01/17 13:06:43;;;;;;;3.85;2.85;;;17.30;77.60;;;;;;5052783;28;20029;-72
2023/01/17 13:09:13;;;;;;;3.58;2.83;;;17.20;76.10;;;;;;5052787;28;20032;-67
2023/01/17 13:11:48;;;;;;;3.55;3.20;;;17.00;76.90;;;;;;5053026;28;20017;-69
2023/01/17 13:14:14;;;;;;;2.90;2.55;;;17.00;78.40;;;;;;5052934;28;20078;-74
2023/01/17 13:16:57;;;;;;;2.67;2.40;;;16.90;79.00;;;;;;5052648;28;20128;-67
2023/01/17 13:20:14;;;;;;;2.35;2.15;;;16.80;76.00;;;;;;5051979;28;20025;-63
2023/01/17 13:22:40;;;;;;;4.40;3.40;;;16.80;76.80;;;;;;5051942;28;20021;-63
2023/01/17 13:25:06;;;;;;;3.75;3.15;;;16.60;77.40;;;;;;5055474;28;20024;-71
2023/01/17 13:28:04;;;;;;;3.17;2.85;;;16.50;78.10;;;;;;5055371;28;20021;-65
2023/01/17 13:30:30;;;;;;;2.72;2.20;;;16.60;78.90;;;;;;5054588;28;20029;-63
2023/01/17 13:33:14;;;;;;;3.17;2.53;;;16.70;79.10;;;;;;5054609;28;20017;-69
2023/01/17 13:35:49;;;;;;;2.50;2.30;;;16.60;78.60;;;;;;5055255;28;20067;-70
2023/01/17 13:38:20;;;;;;;3.28;2.40;;;16.70;79.60;;;;;;5055556;28;20025;-69
2023/01/17 13:40:53;;;;;;;3.10;2.58;;;17.00;79.60;;;;;;5055612;28;20092;-63
2023/01/17 13:43:27;;;;;;;2.83;2.38;;;17.20;77.60;;;;;;5055509;28;20021;-60
2023/01/17 13:45:56;;;;;;;4.07;3.67;;;17.30;77.70;;;;;;5055140;28;20020;-63
2023/01/17 13:48:24;;;;;;;4.85;3.97;;;17.10;76.70;;;;;;5056156;28;20021;-65
2023/01/17 13:51:00;;;;;;;4.10;3.65;;;17.00;76.60;;;;;;5056239;28;20391;-61
2023/01/17 13:53:32;;;;;;;3.40;3.10;;;17.00;77.20;;;;;;5056035;28;20382;-70
2023/01/17 13:56:15;;;;;;;4.22;3.20;;;16.90;76.70;;;;;;5054863;28;20056;-65
2023/01/17 13:58:50;;;;;;;3.40;3.10;;;16.90;76.50;;;;;;5053859;28;20430;-68
2023/01/17 14:01:22;;;;;;;4.03;3.40;;;16.90;77.50;;;;;;5054029;28;20021;-68
2023/01/17 14:03:51;;;;;;;4.47;3.85;;;16.80;76.60;;;;;;5054100;28;20021;-68
2023/01/17 14:06:35;;;;;;;4.32;3.90;;;16.70;77.00;;;;;;5054344;28;20547;-65
2023/01/17 14:09:36;;;;;;;4.50;4.10;;;16.70;76.40;;;;;;5054779;28;20031;-65
2023/01/17 14:12:07;;;;;;;4.25;3.72;;;16.60;77.90;;;;;;5055837;28;20025;-66
2023/01/17 14:14:34;;;;;;;3.38;3.08;;;16.60;79.10;;;;;;5055610;28;20029;-68
2023/01/17 14:17:15;;;;;;;3.60;3.30;;;16.60;79.00;;;;;;5055297;28;20471;-61
2023/01/17 14:19:43;;;;;;;4.88;3.88;;;16.60;79.20;;;;;;5055432;28;20031;-66
2023/01/17 14:22:18;;;;;;;8.48;6.68;;;16.60;78.00;;;;;;5055387;28;20033;-60
2023/01/17 14:25:10;;;;;;;6.28;5.68;;;16.50;77.30;;;;;;5055370;28;20151;-65
2023/01/17 14:27:46;;;;;;;10.32;8.63;;;16.40;78.90;;;;;;5055509;28;20040;-67
2023/01/17 14:30:28;;;;;;;9.48;8.35;;;16.40;77.60;;;;;;5055288;28;20051;-65
2023/01/17 14:33:09;;;;;;;7.95;6.97;;;16.20;77.80;;;;;;5055233;28;20098;-64
2023/01/17 14:35:51;;;;;;;6.80;5.63;;;16.10;76.90;;;;;;5055196;28;20029;-62
2023/01/17 14:38:22;;;;;;;7.07;6.38;;;16.00;76.50;;;;;;5055480;28;20033;-66
2023/01/17 14:40:51;;;;;;;7.72;6.70;;;16.00;77.80;;;;;;5055096;28;20033;-68
2023/01/17 14:43:21;;;;;;;11.35;10.15;;;15.90;78.30;;;;;;5054979;28;20104;-64
2023/01/17 14:45:48;;;;;;;8.63;7.72;;;16.00;79.90;;;;;;5055143;28;20036;-69
2023/01/17 14:48:19;;;;;;;7.32;6.60;;;15.90;79.40;;;;;;5055118;28;20491;-66
2023/01/17 14:50:48;;;;;;;6.40;5.80;;;16.00;78.70;;;;;;5054801;28;20040;-65
2023/01/17 14:53:18;;;;;;;6.80;5.43;;;16.10;78.30;;;;;;5055154;28;20025;-70
2023/01/17 14:55:47;;;;;;;7.20;6.22;;;16.00;79.60;;;;;;5054766;28;20032;-60
2023/01/17 14:58:32;;;;;;;14.82;9.80;;;16.00;78.30;;;;;;5055022;28;20025;-65
2023/01/17 15:01:10;;;;;;;11.77;6.97;;;15.60;75.20;;;;;;5054985;28;20159;-64
2023/01/17 15:03:57;;;;;;;15.25;10.40;;;15.50;75.80;;;;;;5054608;28;20021;-66
2023/01/17 15:06:37;;;;;;;16.63;10.30;;;15.60;77.30;;;;;;5054550;28;20057;-69
2023/01/17 15:09:11;;;;;;;32.35;17.27;;;15.60;75.90;;;;;;5054706;28;20087;-67
2023/01/17 15:11:38;;;;;;;11.93;7.32;;;15.70;74.10;;;;;;5054470;28;20021;-68
2023/01/17 15:14:05;;;;;;;8.00;6.55;;;15.60;73.30;;;;;;5054456;28;20139;-68
2023/01/17 15:16:36;;;;;;;5.65;3.92;;;15.60;73.90;;;;;;5054392;28;20032;-64
2023/01/17 15:19:08;;;;;;;6.30;5.18;;;15.80;74.40;;;;;;5054633;28;20024;-67
2023/01/17 15:21:39;;;;;;;11.88;9.65;;;15.90;74.20;;;;;;5054473;28;20484;-67
2023/01/17 15:24:07;;;;;;;8.15;6.88;;;15.90;72.30;;;;;;5054362;28;20483;-68
2023/01/17 15:26:39;;;;;;;12.00;9.95;;;15.90;71.30;;;;;;5054467;28;20387;-64
2023/01/17 15:29:10;;;;;;;10.60;8.80;;;15.90;72.50;;;;;;5054166;28;20191;-63
2023/01/17 15:31:48;;;;;;;18.67;13.13;;;15.90;73.20;;;;;;5054115;28;20086;-72
2023/01/17 15:34:34;;;;;;;3.67;3.17;;;15.80;70.90;;;;;;5054456;28;20539;-64
2023/01/17 15:37:25;;;;;;;7.78;5.72;;;15.70;71.40;;;;;;5053841;28;20068;-70
2023/01/17 15:39:59;;;;;;;7.78;6.80;;;15.60;72.30;;;;;;5054033;28;20028;-64
2023/01/17 15:42:30;;;;;;;10.20;9.13;;;15.60;71.80;;;;;;5053934;28;20039;-67
2023/01/17 15:44:59;;;;;;;8.75;7.10;;;15.70;72.00;;;;;;5053886;28;20029;-69
2023/01/17 15:47:30;;;;;;;6.53;4.93;;;15.60;73.30;;;;;;5053460;28;20067;-66
2023/01/17 15:49:57;;;;;;;7.28;5.20;;;15.60;72.10;;;;;;5054162;28;20071;-65
2023/01/17 15:52:22;;;;;;;6.88;5.28;;;15.50;72.00;;;;;;5054169;28;20025;-62
2023/01/17 15:54:52;;;;;;;5.85;4.63;;;15.40;73.30;;;;;;5053670;28;20497;-69
2023/01/17 15:57:31;;;;;;;9.50;7.45;;;15.40;72.50;;;;;;5053681;28;20360;-70
2023/01/17 16:00:04;;;;;;;7.32;5.93;;;15.50;74.50;;;;;;5053907;28;20411;-66
2023/01/17 16:02:30;;;;;;;;;;;15.50;72.60;;;;;;5054350;28;20029;-69
2023/01/17 16:04:57;;;;;;;4.78;3.85;;;15.40;73.40;;;;;;5053619;28;20251;-69
2023/01/17 16:07:32;;;;;;;3.42;2.60;;;15.40;73.20;;;;;;5053573;28;20398;-66
2023/01/17 16:10:38;;;;;;;5.40;3.80;;;15.40;72.40;;;;;;5053460;28;20017;-69
2023/01/17 16:13:07;;;;;;;11.45;8.57;;;15.50;73.20;;;;;;5052216;28;20029;-66
2023/01/17 16:15:35;;;;;;;4.88;4.38;;;15.30;74.50;;;;;;5053505;28;20025;-66
2023/01/17 16:18:14;;;;;;;5.20;4.15;;;15.10;73.80;;;;;;5053113;28;20036;-65
2023/01/17 16:20:54;;;;;;;3.50;3.08;;;15.20;74.30;;;;;;5053412;28;20021;-70